Time;durP1;ratioP1;P1;durP2;ratioP2;P2;SDS_P1;SDS_P2;PMS_P1;PMS_P2;Temp;Humidity;BMP_temperature;BMP_pressure;BME280_temperature;BME280_humidity;BME280_pressure;Samples;Min_cycle;Max_cycle;Signal;HPM_P1;HPM_P2
2021/11/20 00:01:16;;;;;;;;;;;;;;;;;;2049979;29;2189;-88
2021/11/20 00:02:20;;;;;;;;;;;;;;;;;;2041609;29;1571;-87
2021/11/20 00:03:21;;;;;;;;;;;;;;;;;;2042030;29;1335;-88
2021/11/20 00:08:50;;;;;;;;;;;;;;;;;;2050406;29;587;-87
2021/11/20 00:10:04;;;;;;;;;;;;;;;;;;2049852;29;1298;-87
2021/11/20 00:11:07;;;;;;;;;;;;;;;;;;2049998;29;1347;-87
2021/11/20 00:14:22;;;;;;;;;;;;;;;;;;2050370;29;643;-87
2021/11/20 00:15:28;;;;;;;;;;;;;;;;;;2050245;28;1322;-87
2021/11/20 00:19:01;;;;;;;;;;;;;;;;;;2050213;29;611;-87
2021/11/20 00:24:18;;;;;;;;;;;;;;;;;;2050424;29;599;-87
2021/11/20 00:25:23;;;;;;;;;;;;;;;;;;2049465;29;1357;-88
2021/11/20 00:26:29;;;;;;;;;;;;;;;;;;2049716;29;1153;-88
2021/11/20 00:27:34;;;;;;;;;;;;;;;;;;2049680;29;1307;-86
2021/11/20 00:28:41;;;;;;;;;;;;;;;;;;2034567;28;1353;-89
2021/11/20 00:29:46;;;;;;;;;;;;;;;;;;2035199;29;1269;-95
2021/11/20 00:32:10;;;;;;;;;;;;;;;;;;2041155;28;1458;-89
2021/11/20 00:33:12;;;;;;;;;;;;;;;;;;2041563;29;1223;-90
2021/11/20 00:36:22;;;;;;;;;;;;;;;;;;2050087;29;1915;-89
2021/11/20 00:37:23;;;;;;;;;;;;;;;;;;2049475;28;1208;-89
2021/11/20 00:38:25;;;;;;;;;;;;;;;;;;2033840;29;1219;-89
2021/11/20 00:39:29;;;;;;;;;;;;;;;;;;2041500;29;1316;-90
2021/11/20 00:40:33;;;;;;;;;;;;;;;;;;2049568;29;1388;-89
2021/11/20 00:41:34;;;;;;;;;;;;;;;;;;2042177;29;1224;-90
2021/11/20 00:42:36;;;;;;;;;;;;;;;;;;2033938;29;1319;-89
2021/11/20 00:43:37;;;;;;;;;;;;;;;;;;2033619;29;1239;-90
2021/11/20 00:44:41;;;;;;;;;;;;;;;;;;2049608;28;1318;-89
2021/11/20 00:45:42;;;;;;;;;;;;;;;;;;2049631;29;1392;-89
2021/11/20 00:46:44;;;;;;;;;;;;;;;;;;2049488;29;1240;-88
2021/11/20 00:47:44;;;;;;;;;;;;;;;;;;2049336;29;1379;-88
2021/11/20 00:48:50;;;;;;;;;;;;;;;;;;2041996;29;1402;-88
2021/11/20 00:49:52;;;;;;;;;;;;;;;;;;2049694;29;825;-87
2021/11/20 00:50:54;;;;;;;;;;;;;;;;;;2049078;29;1322;-87
2021/11/20 00:52:00;;;;;;;;;;;;;;;;;;2041904;29;1232;-89
2021/11/20 00:55:29;;;;;;;;;;;;;;;;;;2050137;29;599;-89
2021/11/20 00:56:32;;;;;;;;;;;;;;;;;;2049785;28;1975;-87
2021/11/20 00:57:36;;;;;;;;;;;;;;;;;;2049460;29;1305;-87
2021/11/20 00:58:40;;;;;;;;;;;;;;;;;;2049624;29;1149;-87
2021/11/20 00:59:42;;;;;;;;;;;;;;;;;;2041493;29;1271;-88
2021/11/20 01:00:45;;;;;;;;;;;;;;;;;;2033668;29;1263;-88
2021/11/20 01:10:27;;;;;;;;;;;;;;;;;;2091624;28;689;-89
2021/11/20 01:15:37;;;;;;;;;;;;;;;;;;2093479;28;654;-89
2021/11/20 01:18:22;;;;;;;;;;;;;;;;;;2089469;28;1248;-88
2021/11/20 01:20:55;;;;;;;;;;;;;;;;;;2072218;28;1285;-90
2021/11/20 01:21:56;;;;;;;;;;;;;;;;;;2068427;28;1258;-89
2021/11/20 01:22:59;;;;;;;;;;;;;;;;;;2068204;28;1281;-90
2021/11/20 01:24:00;;;;;;;;;;;;;;;;;;2083444;28;1756;-90
2021/11/20 01:31:26;;;;;;;;;;;;;;;;;;2092718;28;984;-89
2021/11/20 01:36:48;;;;;;;;;;;;;;;;;;2084605;28;1977;-87
2021/11/20 01:37:48;;;;;;;;;;;;;;;;;;2092291;28;1350;-87
2021/11/20 01:38:53;;;;;;;;;;;;;;;;;;2083112;28;2112;-87
2021/11/20 01:40:04;;;;;;;;;;;;;;;;;;2068983;28;1419;-88
2021/11/20 01:41:09;;;;;;;;;;;;;;;;;;2068476;28;1135;-87
2021/11/20 01:42:25;;;;;;;;;;;;;;;;;;2069491;28;1336;-87
2021/11/20 01:43:54;;;;;;;;;;;;;;;;;;2074641;28;1774;-85
2021/11/20 01:45:02;;;;;;;;;;;;;;;;;;2075622;28;1449;-86
2021/11/20 01:46:14;;;;;;;;;;;;;;;;;;2061844;28;1194;-88
2021/11/20 01:51:30;;;;;;;;;;;;;;;;;;2076665;28;751;-87
2021/11/20 01:54:42;;;;;;;;;;;;;;;;;;2069048;28;1512;-88
2021/11/20 01:56:08;;;;;;;;;;;;;;;;;;2065922;28;1672;-88
2021/11/20 01:57:16;;;;;;;;;;;;;;;;;;2068038;28;1985;-91
2021/11/20 02:00:48;;;;;;;;;;;;;;;;;;2077453;28;674;-90
2021/11/20 02:03:59;;;;;;;;;;;;;;;;;;2075982;28;694;-89
2021/11/20 02:05:12;;;;;;;;;;;;;;;;;;2083959;28;1175;-89
2021/11/20 02:06:33;;;;;;;;;;;;;;;;;;2073657;28;1349;-89
2021/11/20 02:07:41;;;;;;;;;;;;;;;;;;2069137;28;1308;-90
2021/11/20 02:08:49;;;;;;;;;;;;;;;;;;2067907;28;2106;-89
2021/11/20 02:09:53;;;;;;;;;;;;;;;;;;2052915;28;1138;-90
2021/11/20 02:11:03;;;;;;;;;;;;;;;;;;2061430;28;2024;-91
2021/11/20 02:12:06;;;;;;;;;;;;;;;;;;2060105;28;1299;-89
2021/11/20 02:13:09;;;;;;;;;;;;;;;;;;2060094;28;1417;-89
2021/11/20 02:14:12;;;;;;;;;;;;;;;;;;2067167;28;1370;-89
2021/11/20 02:15:18;;;;;;;;;;;;;;;;;;2068108;28;1374;-89
2021/11/20 02:16:24;;;;;;;;;;;;;;;;;;2075763;28;1443;-89
2021/11/20 02:17:33;;;;;;;;;;;;;;;;;;2075167;28;1417;-89
2021/11/20 02:18:38;;;;;;;;;;;;;;;;;;2068649;28;1356;-89
2021/11/20 02:19:41;;;;;;;;;;;;;;;;;;2066241;28;1333;-89
2021/11/20 02:20:45;;;;;;;;;;;;;;;;;;2067358;28;1239;-90
2021/11/20 02:22:05;;;;;;;;;;;;;;;;;;2061692;28;1297;-89
2021/11/20 02:23:06;;;;;;;;;;;;;;;;;;2059446;28;1427;-89
2021/11/20 02:24:09;;;;;;;;;;;;;;;;;;2081012;28;1731;-89
2021/11/20 02:25:26;;;;;;;;;;;;;;;;;;2088210;28;1367;-89
2021/11/20 02:26:54;;;;;;;;;;;;;;;;;;2074321;28;1263;-89
2021/11/20 02:27:56;;;;;;;;;;;;;;;;;;2069740;28;1343;-90
2021/11/20 02:28:59;;;;;;;;;;;;;;;;;;2067238;28;1754;-93
2021/11/20 02:30:27;;;;;;;;;;;;;;;;;;2062374;28;1432;-89
2021/11/20 02:31:28;;;;;;;;;;;;;;;;;;2079011;28;1369;-90
2021/11/20 02:32:30;;;;;;;;;;;;;;;;;;2075536;28;1271;-89
2021/11/20 02:33:38;;;;;;;;;;;;;;;;;;2083814;28;1355;-89
2021/11/20 02:34:41;;;;;;;;;;;;;;;;;;2083603;28;1312;-89
2021/11/20 02:35:44;;;;;;;;;;;;;;;;;;2075473;28;1486;-89
2021/11/20 02:36:47;;;;;;;;;;;;;;;;;;2083622;28;1973;-89
2021/11/20 02:37:49;;;;;;;;;;;;;;;;;;2075731;28;1390;-88
2021/11/20 02:38:55;;;;;;;;;;;;;;;;;;2070482;28;1741;-89
2021/11/20 02:39:56;;;;;;;;;;;;;;;;;;2075689;28;1334;-89
2021/11/20 02:40:58;;;;;;;;;;;;;;;;;;2075329;28;1340;-89
2021/11/20 02:42:14;;;;;;;;;;;;;;;;;;2083305;28;1496;-89
2021/11/20 02:48:36;;;;;;;;;;;;;;;;;;2029048;29;1206;-89
2021/11/20 02:49:38;;;;;;;;;;;;;;;;;;2039950;29;1405;-88
2021/11/20 02:50:57;;;;;;;;;;;;;;;;;;2039101;28;1432;-88
2021/11/20 02:56:12;;;;;;;;;;;;;;;;;;2084269;28;666;-88
2021/11/20 02:57:15;;;;;;;;;;;;;;;;;;2067115;28;1894;-87
2021/11/20 02:58:20;;;;;;;;;;;;;;;;;;2076323;28;1408;-87
2021/11/20 02:59:24;;;;;;;;;;;;;;;;;;2083498;28;1890;-87
2021/11/20 03:00:26;;;;;;;;;;;;;;;;;;2066862;28;1191;-87
2021/11/20 03:01:27;;;;;;;;;;;;;;;;;;2073832;28;2100;-87
2021/11/20 03:02:29;;;;;;;;;;;;;;;;;;2075106;28;1209;-92
2021/11/20 03:03:30;;;;;;;;;;;;;;;;;;2067384;28;1445;-87
2021/11/20 03:04:32;;;;;;;;;;;;;;;;;;2073837;28;2058;-87
2021/11/20 03:05:34;;;;;;;;;;;;;;;;;;2075320;28;1275;-88
2021/11/20 03:06:36;;;;;;;;;;;;;;;;;;2067082;28;1437;-88
2021/11/20 03:07:36;;;;;;;;;;;;;;;;;;2066963;28;1191;-87
2021/11/20 03:08:39;;;;;;;;;;;;;;;;;;2074547;28;1398;-88
2021/11/20 03:09:46;;;;;;;;;;;;;;;;;;2075667;28;1401;-87
2021/11/20 03:10:54;;;;;;;;;;;;;;;;;;2075955;28;1220;-86
2021/11/20 03:11:56;;;;;;;;;;;;;;;;;;2081595;28;1430;-87
2021/11/20 03:12:57;;;;;;;;;;;;;;;;;;2074616;28;1356;-95
2021/11/20 03:14:04;;;;;;;;;;;;;;;;;;2091841;28;1335;-93
2021/11/20 03:15:20;;;;;;;;;;;;;;;;;;2083033;28;1307;-87
2021/11/20 03:16:24;;;;;;;;;;;;;;;;;;2083428;28;1737;-88
2021/11/20 03:21:28;;;;;;;;;;;;;;;;;;2092466;28;599;-88
2021/11/20 03:26:45;;;;;;;;;;;;;;;;;;2092529;28;623;-88
2021/11/20 03:27:49;;;;;;;;;;;;;;;;;;2083664;28;1402;-88
2021/11/20 03:28:49;;;;;;;;;;;;;;;;;;2075151;28;1188;-88
2021/11/20 03:32:24;;;;;;;;;;;;;;;;;;2091178;28;1034;-89
2021/11/20 03:33:25;;;;;;;;;;;;;;;;;;2075505;28;1449;-89
2021/11/20 03:34:28;;;;;;;;;;;;;;;;;;2075271;28;1308;-88
2021/11/20 03:38:05;;;;;;;;;;;;;;;;;;2084020;28;1902;-88
2021/11/20 03:39:09;;;;;;;;;;;;;;;;;;2074711;28;1279;-89
2021/11/20 03:40:12;;;;;;;;;;;;;;;;;;2067612;28;1289;-88
2021/11/20 03:41:13;;;;;;;;;;;;;;;;;;2067070;28;1192;-88
2021/11/20 03:42:14;;;;;;;;;;;;;;;;;;2067020;28;1270;-88
2021/11/20 03:43:18;;;;;;;;;;;;;;;;;;2067571;28;1451;-88
2021/11/20 03:44:20;;;;;;;;;;;;;;;;;;2066530;28;1153;-88
2021/11/20 03:45:23;;;;;;;;;;;;;;;;;;2067242;28;1415;-88
2021/11/20 03:46:26;;;;;;;;;;;;;;;;;;2067428;28;1311;-88
2021/11/20 03:47:28;;;;;;;;;;;;;;;;;;2066963;28;1427;-88
2021/11/20 03:48:30;;;;;;;;;;;;;;;;;;2067095;28;1214;-89
2021/11/20 03:52:06;;;;;;;;;;;;;;;;;;2084000;28;695;-89
2021/11/20 03:53:07;;;;;;;;;;;;;;;;;;2075206;28;1525;-88
2021/11/20 03:54:11;;;;;;;;;;;;;;;;;;2075111;28;1413;-88
2021/11/20 03:55:15;;;;;;;;;;;;;;;;;;2059472;28;1304;-88
2021/11/20 03:56:15;;;;;;;;;;;;;;;;;;2059262;28;1580;-88
2021/11/20 03:57:17;;;;;;;;;;;;;;;;;;2066877;28;1918;-88
2021/11/20 03:58:19;;;;;;;;;;;;;;;;;;2066865;28;1428;-88
2021/11/20 03:59:24;;;;;;;;;;;;;;;;;;2067416;28;1131;-88
2021/11/20 04:00:27;;;;;;;;;;;;;;;;;;2067029;28;1192;-88
2021/11/20 04:01:29;;;;;;;;;;;;;;;;;;2067069;28;1140;-88
2021/11/20 04:02:30;;;;;;;;;;;;;;;;;;2067225;28;1714;-88
2021/11/20 04:03:32;;;;;;;;;;;;;;;;;;2067185;28;1262;-89
2021/11/20 04:04:34;;;;;;;;;;;;;;;;;;2066899;28;1454;-88
2021/11/20 04:05:36;;;;;;;;;;;;;;;;;;2066765;28;1559;-88
2021/11/20 04:06:36;;;;;;;;;;;;;;;;;;2075195;28;1422;-88
2021/11/20 04:07:43;;;;;;;;;;;;;;;;;;2059510;28;1242;-88
2021/11/20 04:11:13;;;;;;;;;;;;;;;;;;2083872;28;623;-89
2021/11/20 04:12:17;;;;;;;;;;;;;;;;;;2075007;28;1263;-88
2021/11/20 04:13:18;;;;;;;;;;;;;;;;;;2075206;28;1250;-88
2021/11/20 04:14:22;;;;;;;;;;;;;;;;;;2066831;28;1321;-89
2021/11/20 04:15:24;;;;;;;;;;;;;;;;;;2074862;28;1216;-88
2021/11/20 04:16:26;;;;;;;;;;;;;;;;;;2066708;28;1276;-88
2021/11/20 04:17:28;;;;;;;;;;;;;;;;;;2051402;28;1906;-88
2021/11/20 04:18:30;;;;;;;;;;;;;;;;;;2066517;28;1424;-88
2021/11/20 04:19:31;;;;;;;;;;;;;;;;;;2066774;28;2070;-88
2021/11/20 04:20:34;;;;;;;;;;;;;;;;;;2074824;28;1087;-89
2021/11/20 04:21:35;;;;;;;;;;;;;;;;;;2074428;28;1368;-88
2021/11/20 04:22:37;;;;;;;;;;;;;;;;;;2067053;28;1241;-88
2021/11/20 04:23:41;;;;;;;;;;;;;;;;;;2066644;28;1403;-88
2021/11/20 04:24:45;;;;;;;;;;;;;;;;;;2075131;28;1500;-87
2021/11/20 04:25:54;;;;;;;;;;;;;;;;;;2051968;28;2164;-88
2021/11/20 04:26:57;;;;;;;;;;;;;;;;;;2053155;28;1475;-88
2021/11/20 04:28:07;;;;;;;;;;;;;;;;;;2058689;28;1200;-88
2021/11/20 04:29:28;;;;;;;;;;;;;;;;;;2067466;28;1502;-88
2021/11/20 04:30:30;;;;;;;;;;;;;;;;;;2061204;28;1388;-87
2021/11/20 04:31:32;;;;;;;;;;;;;;;;;;2057928;28;2172;-88
2021/11/20 04:32:33;;;;;;;;;;;;;;;;;;2067372;28;1418;-90
2021/11/20 04:33:35;;;;;;;;;;;;;;;;;;2074510;28;1180;-88
2021/11/20 04:34:35;;;;;;;;;;;;;;;;;;2083833;28;1608;-88
2021/11/20 04:35:37;;;;;;;;;;;;;;;;;;2082784;28;1393;-88
2021/11/20 04:36:41;;;;;;;;;;;;;;;;;;2074679;28;1323;-88
2021/11/20 04:37:44;;;;;;;;;;;;;;;;;;2082456;28;1981;-88
2021/11/20 04:38:45;;;;;;;;;;;;;;;;;;2073679;28;1891;-88
2021/11/20 04:39:46;;;;;;;;;;;;;;;;;;2076830;28;1380;-89
2021/11/20 04:40:49;;;;;;;;;;;;;;;;;;2082653;28;1188;-88
2021/11/20 04:41:52;;;;;;;;;;;;;;;;;;2082013;28;2090;-88
2021/11/20 04:42:53;;;;;;;;;;;;;;;;;;2074014;28;1266;-88
2021/11/20 04:43:58;;;;;;;;;;;;;;;;;;2074371;28;1387;-88
2021/11/20 04:44:59;;;;;;;;;;;;;;;;;;2074344;28;1529;-88
2021/11/20 04:46:01;;;;;;;;;;;;;;;;;;2075206;28;2028;-88
2021/11/20 04:47:02;;;;;;;;;;;;;;;;;;2074655;28;1291;-88
2021/11/20 04:48:05;;;;;;;;;;;;;;;;;;2090860;28;1416;-89
2021/11/20 04:49:17;;;;;;;;;;;;;;;;;;2085354;28;1826;-87
2021/11/20 04:50:19;;;;;;;;;;;;;;;;;;2082673;28;1332;-87
2021/11/20 04:51:23;;;;;;;;;;;;;;;;;;2078144;28;2003;-87
2021/11/20 04:52:23;;;;;;;;;;;;;;;;;;2074156;28;1490;-88
2021/11/20 04:53:25;;;;;;;;;;;;;;;;;;2073724;28;1482;-87
2021/11/20 04:54:26;;;;;;;;;;;;;;;;;;2073592;28;1724;-86
2021/11/20 04:55:28;;;;;;;;;;;;;;;;;;2073796;28;1398;-86
2021/11/20 04:56:29;;;;;;;;;;;;;;;;;;2071189;28;2013;-88
2021/11/20 04:57:32;;;;;;;;;;;;;;;;;;2073883;28;1942;-87
2021/11/20 04:58:33;;;;;;;;;;;;;;;;;;2074433;28;1506;-88
2021/11/20 04:59:37;;;;;;;;;;;;;;;;;;2081845;28;1287;-87
2021/11/20 05:00:41;;;;;;;;;;;;;;;;;;2074624;28;1384;-87
2021/11/20 05:01:43;;;;;;;;;;;;;;;;;;2074200;28;1251;-88
2021/11/20 05:02:44;;;;;;;;;;;;;;;;;;2082373;28;1172;-87
2021/11/20 05:03:50;;;;;;;;;;;;;;;;;;2073196;28;1726;-88
2021/11/20 05:04:52;;;;;;;;;;;;;;;;;;2066813;28;1194;-87
2021/11/20 05:05:55;;;;;;;;;;;;;;;;;;2074121;28;1240;-87
2021/11/20 05:06:56;;;;;;;;;;;;;;;;;;2066448;28;1291;-87
2021/11/20 05:07:58;;;;;;;;;;;;;;;;;;2058408;28;1271;-87
2021/11/20 05:08:59;;;;;;;;;;;;;;;;;;2060936;28;1380;-87
2021/11/20 05:10:02;;;;;;;;;;;;;;;;;;2074814;28;1220;-88
2021/11/20 05:11:06;;;;;;;;;;;;;;;;;;2082271;28;1368;-90
2021/11/20 05:12:18;;;;;;;;;;;;;;;;;;2068040;28;1194;-87
2021/11/20 05:13:22;;;;;;;;;;;;;;;;;;2066038;28;1525;-86
2021/11/20 05:14:25;;;;;;;;;;;;;;;;;;2060198;28;2050;-86
2021/11/20 05:15:29;;;;;;;;;;;;;;;;;;2058040;28;1413;-86
2021/11/20 05:16:32;;;;;;;;;;;;;;;;;;2063447;28;1458;-87
2021/11/20 05:17:33;;;;;;;;;;;;;;;;;;2074497;28;1985;-85
2021/11/20 05:18:35;;;;;;;;;;;;;;;;;;2066341;28;1207;-92
2021/11/20 05:19:43;;;;;;;;;;;;;;;;;;2064287;28;1466;-85
2021/11/20 05:20:46;;;;;;;;;;;;;;;;;;2074207;28;1417;-85
2021/11/20 05:21:47;;;;;;;;;;;;;;;;;;2066398;28;1173;-85
2021/11/20 05:22:52;;;;;;;;;;;;;;;;;;2083114;28;1376;-85
2021/11/20 05:23:54;;;;;;;;;;;;;;;;;;2089900;28;1339;-85
2021/11/20 05:24:55;;;;;;;;;;;;;;;;;;2095016;28;1437;-83
2021/11/20 05:25:57;;;;;;;;;;;;;;;;;;2081997;28;1328;-84
2021/11/20 05:27:00;;;;;;;;;;;;;;;;;;2066303;28;1288;-86
2021/11/20 05:28:02;;;;;;;;;;;;;;;;;;2074661;28;1225;-85
2021/11/20 05:29:06;;;;;;;;;;;;;;;;;;2077055;28;2033;-84
2021/11/20 05:30:16;;;;;;;;;;;;;;;;;;2075226;28;1637;-85
2021/11/20 05:31:19;;;;;;;;;;;;;;;;;;2074392;28;1203;-86
2021/11/20 05:32:21;;;;;;;;;;;;;;;;;;2074317;28;1342;-84
2021/11/20 05:33:27;;;;;;;;;;;;;;;;;;2090191;28;1448;-85
2021/11/20 05:34:28;;;;;;;;;;;;;;;;;;2090072;28;1161;-84
2021/11/20 05:35:31;;;;;;;;;;;;;;;;;;2074017;28;1352;-86
2021/11/20 05:36:32;;;;;;;;;;;;;;;;;;2090785;28;1401;-85
2021/11/20 05:37:36;;;;;;;;;;;;;;;;;;2090159;28;1960;-88
2021/11/20 05:38:39;;;;;;;;;;;;;;;;;;2066161;28;1335;-85
2021/11/20 05:39:39;;;;;;;;;;;;;;;;;;2065593;28;1544;-86
2021/11/20 05:40:41;;;;;;;;;;;;;;;;;;2090725;28;1497;-84
2021/11/20 05:41:43;;;;;;;;;;;;;;;;;;2088503;28;1347;-86
2021/11/20 05:42:47;;;;;;;;;;;;;;;;;;2073933;28;1435;-86
2021/11/20 05:43:47;;;;;;;;;;;;;;;;;;2073259;28;1630;-86
2021/11/20 05:45:13;;;;;;;;;;;;;;;;;;2076791;28;1188;-86
2021/11/20 05:46:14;;;;;;;;;;;;;;;;;;2075969;28;2090;-86
2021/11/20 05:47:18;;;;;;;;;;;;;;;;;;2073656;28;1290;-87
2021/11/20 05:48:21;;;;;;;;;;;;;;;;;;2074546;28;1347;-86
2021/11/20 05:49:23;;;;;;;;;;;;;;;;;;2073668;28;2086;-86
2021/11/20 05:50:25;;;;;;;;;;;;;;;;;;2074184;28;1370;-85
2021/11/20 05:51:26;;;;;;;;;;;;;;;;;;2066059;28;1540;-85
2021/11/20 05:52:27;;;;;;;;;;;;;;;;;;2058137;28;1298;-85
2021/11/20 05:53:29;;;;;;;;;;;;;;;;;;2074165;28;1355;-85
2021/11/20 05:54:31;;;;;;;;;;;;;;;;;;2080733;28;1863;-85
2021/11/20 05:55:41;;;;;;;;;;;;;;;;;;2073851;28;1343;-87
2021/11/20 05:56:42;;;;;;;;;;;;;;;;;;2073431;28;1957;-86
2021/11/20 05:57:45;;;;;;;;;;;;;;;;;;2073855;28;1977;-85
2021/11/20 05:58:48;;;;;;;;;;;;;;;;;;2075227;28;1843;-85
2021/11/20 05:59:50;;;;;;;;;;;;;;;;;;2069013;28;1490;-86
2021/11/20 06:00:52;;;;;;;;;;;;;;;;;;2083648;28;1534;-86
2021/11/20 06:01:54;;;;;;;;;;;;;;;;;;2075147;28;2083;-85
2021/11/20 06:02:57;;;;;;;;;;;;;;;;;;2075949;28;1317;-85
2021/11/20 06:04:16;;;;;;;;;;;;;;;;;;2080383;28;1795;-86
2021/11/20 06:05:17;;;;;;;;;;;;;;;;;;2075201;28;1237;-85
2021/11/20 06:06:20;;;;;;;;;;;;;;;;;;2075225;28;2020;-85
2021/11/20 06:07:20;;;;;;;;;;;;;;;;;;2075413;28;1267;-86
2021/11/20 06:08:24;;;;;;;;;;;;;;;;;;2075882;28;1359;-85
2021/11/20 06:09:26;;;;;;;;;;;;;;;;;;2082947;28;1921;-84
2021/11/20 06:10:28;;;;;;;;;;;;;;;;;;2075056;28;1392;-86
2021/11/20 06:16:05;;;;;;;;;;;;;;;;;;2036488;29;907;-90
2021/11/20 06:17:12;;;;;;;;;;;;;;;;;;2037871;29;1531;-92
2021/11/20 06:18:17;;;;;;;;;;;;;;;;;;2054122;28;1918;-91
2021/11/20 06:19:17;;;;;;;;;;;;;;;;;;2072517;28;1842;-91
2021/11/20 06:20:22;;;;;;;;;;;;;;;;;;2075514;28;1181;-91
2021/11/20 06:21:23;;;;;;;;;;;;;;;;;;2076105;28;1400;-90
2021/11/20 06:22:28;;;;;;;;;;;;;;;;;;2083416;28;1296;-91
2021/11/20 06:26:11;;;;;;;;;;;;;;;;;;2093246;28;1889;-91
2021/11/20 06:27:13;;;;;;;;;;;;;;;;;;2090451;28;1410;-89
2021/11/20 06:29:32;;;;;;;;;;;;;;;;;;2069370;28;1428;-93
2021/11/20 06:34:55;;;;;;;;;;;;;;;;;;2066819;28;1845;-93
2021/11/20 06:36:33;;;;;;;;;;;;;;;;;;2055367;28;1544;-95
2021/11/20 06:37:48;;;;;;;;;;;;;;;;;;2075093;28;1415;-95
2021/11/20 06:38:54;;;;;;;;;;;;;;;;;;2060277;28;1944;-95
2021/11/20 06:39:58;;;;;;;;;;;;;;;;;;2067365;28;1390;-94
2021/11/20 06:41:07;;;;;;;;;;;;;;;;;;2067742;28;1921;-95
2021/11/20 06:42:09;;;;;;;;;;;;;;;;;;2075814;28;1387;-94
2021/11/20 06:43:17;;;;;;;;;;;;;;;;;;2075845;28;1399;-93
2021/11/20 06:44:18;;;;;;;;;;;;;;;;;;2070187;28;1792;-94
2021/11/20 06:45:50;;;;;;;;;;;;;;;;;;2058924;28;1277;-92
2021/11/20 06:46:59;;;;;;;;;;;;;;;;;;2087678;28;1229;-93
2021/11/20 06:48:03;;;;;;;;;;;;;;;;;;2081806;28;1270;-94
2021/11/20 06:49:15;;;;;;;;;;;;;;;;;;2067773;28;1853;-93
2021/11/20 06:50:34;;;;;;;;;;;;;;;;;;2067139;28;1380;-93
2021/11/20 06:51:57;;;;;;;;;;;;;;;;;;2082637;28;1289;-90
2021/11/20 06:53:57;;;;;;;;;;;;;;;;;;2066734;28;1407;-91
2021/11/20 06:55:39;;;;;;;;;;;;;;;;;;2066498;28;1356;-91
2021/11/20 06:57:14;;;;;;;;;;;;;;;;;;2062953;28;1297;-92
2021/11/20 07:02:07;;;;;;;;;;;;;;;;;;2053986;28;1670;-90
2021/11/20 07:03:12;;;;;;;;;;;;;;;;;;2058296;28;1341;-92
2021/11/20 07:04:17;;;;;;;;;;;;;;;;;;2051561;28;1288;-92
2021/11/20 07:05:20;;;;;;;;;;;;;;;;;;2067155;28;1542;-90
2021/11/20 07:06:23;;;;;;;;;;;;;;;;;;2075140;28;1406;-90
2021/11/20 07:07:27;;;;;;;;;;;;;;;;;;2083384;28;1091;-89
2021/11/20 07:08:34;;;;;;;;;;;;;;;;;;2083438;28;1278;-89
2021/11/20 07:09:36;;;;;;;;;;;;;;;;;;2069044;28;1413;-89
2021/11/20 07:10:42;;;;;;;;;;;;;;;;;;2075639;28;1344;-89
2021/11/20 07:11:52;;;;;;;;;;;;;;;;;;2076266;28;1284;-89
2021/11/20 07:12:57;;;;;;;;;;;;;;;;;;2083397;28;1293;-89
2021/11/20 07:16:12;;;;;;;;;;;;;;;;;;2075524;28;1169;-89
2021/11/20 07:23:28;;;;;;;;;;;;;;;;;;2059227;28;683;-89
2021/11/20 07:30:49;;;;;;;;;;;;;;;;;;2059105;28;985;-90
2021/11/20 07:31:49;;;;;;;;;;;;;;;;;;2050324;29;1259;-89
2021/11/20 07:32:52;;;;;;;;;;;;;;;;;;2042571;29;1192;-89
2021/11/20 07:33:53;;;;;;;;;;;;;;;;;;2042761;28;1465;-92
2021/11/20 07:34:56;;;;;;;;;;;;;;;;;;2079004;28;1157;-90
2021/11/20 07:35:59;;;;;;;;;;;;;;;;;;2075209;28;1201;-90
2021/11/20 07:37:01;;;;;;;;;;;;;;;;;;2075851;28;1307;-90
2021/11/20 07:38:05;;;;;;;;;;;;;;;;;;2083629;28;1425;-89
2021/11/20 07:39:10;;;;;;;;;;;;;;;;;;2083471;28;1984;-89
2021/11/20 07:40:12;;;;;;;;;;;;;;;;;;2075795;28;1391;-90
2021/11/20 07:41:14;;;;;;;;;;;;;;;;;;2083604;28;1359;-90
2021/11/20 07:42:15;;;;;;;;;;;;;;;;;;2083714;28;971;-89
2021/11/20 07:43:36;;;;;;;;;;;;;;;;;;2077938;28;631;-89
2021/11/20 07:44:49;;;;;;;;;;;;;;;;;;2071333;28;1264;-90
2021/11/20 07:45:51;;;;;;;;;;;;;;;;;;2069092;28;1391;-89
2021/11/20 07:46:54;;;;;;;;;;;;;;;;;;2083584;28;1220;-90
2021/11/20 07:48:02;;;;;;;;;;;;;;;;;;2075675;28;1482;-90
2021/11/20 07:49:05;;;;;;;;;;;;;;;;;;2076015;28;1207;-90
2021/11/20 07:50:14;;;;;;;;;;;;;;;;;;2075967;28;1484;-91
2021/11/20 07:51:17;;;;;;;;;;;;;;;;;;2073881;28;1248;-91
2021/11/20 07:52:22;;;;;;;;;;;;;;;;;;2075334;28;1389;-93
2021/11/20 07:53:24;;;;;;;;;;;;;;;;;;2067805;28;1591;-94
2021/11/20 07:54:30;;;;;;;;;;;;;;;;;;2074527;28;1456;-92
2021/11/20 07:56:07;;;;;;;;;;;;;;;;;;2075137;28;1275;-92
2021/11/20 07:57:09;;;;;;;;;;;;;;;;;;2082818;28;1322;-93
2021/11/20 07:58:12;;;;;;;;;;;;;;;;;;2075222;28;1253;-92
2021/11/20 07:59:14;;;;;;;;;;;;;;;;;;2067076;28;1943;-93
2021/11/20 08:00:18;;;;;;;;;;;;;;;;;;2067189;28;1448;-93
2021/11/20 08:01:19;;;;;;;;;;;;;;;;;;2083505;28;828;-92
2021/11/20 08:02:21;;;;;;;;;;;;;;;;;;2092001;28;1185;-92
2021/11/20 08:03:23;;;;;;;;;;;;;;;;;;2083032;28;1644;-93
2021/11/20 08:06:22;;;;;;;;;;;;;;;;;;2078039;28;1261;-92
2021/11/20 08:07:56;;;;;;;;;;;;;;;;;;2080008;28;1434;-91
2021/11/20 08:09:54;;;;;;;;;;;;;;;;;;2085942;28;1485;-92
2021/11/20 08:17:38;;;;;;;;;;;;;;;;;;2082688;28;1296;-91
2021/11/20 08:21:25;;;;;;;;;;;;;;;;;;2034419;29;1199;-92
2021/11/20 08:24:54;;;;;;;;;;;;;;;;;;2013361;29;2027;-93
2021/11/20 08:33:42;;;;;;;;;;;;;;;;;;2056867;28;1755;-89
2021/11/20 08:35:19;;;;;;;;;;;;;;;;;;2052910;28;1241;-89
2021/11/20 08:36:41;;;;;;;;;;;;;;;;;;2062024;28;712;-89
2021/11/20 08:38:03;;;;;;;;;;;;;;;;;;2051637;28;1651;-88
2021/11/20 08:39:25;;;;;;;;;;;;;;;;;;2051954;28;1976;-88
2021/11/20 08:40:28;;;;;;;;;;;;;;;;;;2060906;28;1210;-88
2021/11/20 08:41:29;;;;;;;;;;;;;;;;;;2069753;28;2120;-89
2021/11/20 08:42:31;;;;;;;;;;;;;;;;;;2058105;28;1229;-89
2021/11/20 08:43:33;;;;;;;;;;;;;;;;;;2067249;28;1581;-89
2021/11/20 08:44:42;;;;;;;;;;;;;;;;;;2080779;28;1532;-87
2021/11/20 08:45:45;;;;;;;;;;;;;;;;;;2066172;28;1376;-90
2021/11/20 08:46:47;;;;;;;;;;;;;;;;;;2066077;28;2252;-90
2021/11/20 08:47:49;;;;;;;;;;;;;;;;;;2066592;28;1372;-89
2021/11/20 08:48:51;;;;;;;;;;;;;;;;;;2065871;28;1372;-90
2021/11/20 08:49:52;;;;;;;;;;;;;;;;;;2069540;28;1414;-91
2021/11/20 08:50:55;;;;;;;;;;;;;;;;;;2073930;28;1359;-91
2021/11/20 08:51:59;;;;;;;;;;;;;;;;;;2065723;28;1182;-90
2021/11/20 08:53:01;;;;;;;;;;;;;;;;;;2066340;28;1356;-90
2021/11/20 08:54:02;;;;;;;;;;;;;;;;;;2066036;28;1431;-89
2021/11/20 08:55:04;;;;;;;;;;;;;;;;;;2062895;28;1324;-91
2021/11/20 08:56:05;;;;;;;;;;;;;;;;;;2066114;28;1392;-89
2021/11/20 08:57:10;;;;;;;;;;;;;;;;;;2066206;28;1395;-89
2021/11/20 08:58:11;;;;;;;;;;;;;;;;;;2066154;28;1380;-89
2021/11/20 08:59:33;;;;;;;;;;;;;;;;;;2058533;28;1902;-91
2021/11/20 09:01:07;;;;;;;;;;;;;;;;;;2054805;28;1196;-90
2021/11/20 09:02:26;;;;;;;;;;;;;;;;;;2069105;28;1474;-90
2021/11/20 09:03:36;;;;;;;;;;;;;;;;;;2065482;28;1217;-90
2021/11/20 09:04:45;;;;;;;;;;;;;;;;;;2062558;28;1348;-90
2021/11/20 09:06:01;;;;;;;;;;;;;;;;;;2074642;28;1593;-90
2021/11/20 09:07:07;;;;;;;;;;;;;;;;;;2067876;28;1402;-88
2021/11/20 09:08:17;;;;;;;;;;;;;;;;;;2060071;28;1532;-89
2021/11/20 09:09:21;;;;;;;;;;;;;;;;;;2056869;28;1783;-88
2021/11/20 09:10:33;;;;;;;;;;;;;;;;;;2051147;28;1368;-86
2021/11/20 09:11:51;;;;;;;;;;;;;;;;;;2063239;28;1578;-92
2021/11/20 09:13:19;;;;;;;;;;;;;;;;;;2077576;28;1156;-92
2021/11/20 09:15:20;;;;;;;;;;;;;;;;;;2076816;28;1367;-90
2021/11/20 09:15:59;;;;;;;;;;;;;;;;;;2075796;28;1482;-89
2021/11/20 09:17:06;;;;;;;;;;;;;;;;;;2080980;28;1507;-89
2021/11/20 09:18:08;;;;;;;;;;;;;;;;;;2071870;28;1277;-89
2021/11/20 09:19:13;;;;;;;;;;;;;;;;;;2066181;28;1891;-88
2021/11/20 09:20:15;;;;;;;;;;;;;;;;;;2067137;28;1469;-92
2021/11/20 09:21:16;;;;;;;;;;;;;;;;;;2074039;28;1751;-89
2021/11/20 09:22:33;;;;;;;;;;;;;;;;;;2066176;28;1193;-88
2021/11/20 09:23:49;;;;;;;;;;;;;;;;;;2073440;28;1619;-90
2021/11/20 09:25:08;;;;;;;;;;;;;;;;;;2058171;28;1314;-88
2021/11/20 09:26:22;;;;;;;;;;;;;;;;;;2061683;28;1247;-90
2021/11/20 09:27:24;;;;;;;;;;;;;;;;;;2066152;28;1313;-90
2021/11/20 09:28:30;;;;;;;;;;;;;;;;;;2060970;28;1377;-89
2021/11/20 09:29:34;;;;;;;;;;;;;;;;;;2074763;28;1970;-89
2021/11/20 09:30:37;;;;;;;;;;;;;;;;;;2074850;28;1344;-89
2021/11/20 09:31:50;;;;;;;;;;;;;;;;;;2066672;28;2127;-92
2021/11/20 09:32:58;;;;;;;;;;;;;;;;;;2077432;28;1305;-91
2021/11/20 09:34:09;;;;;;;;;;;;;;;;;;2082272;28;1321;-89
2021/11/20 09:35:12;;;;;;;;;;;;;;;;;;2075342;28;1265;-90
2021/11/20 09:36:43;;;;;;;;;;;;;;;;;;2068062;28;1942;-90
2021/11/20 09:38:11;;;;;;;;;;;;;;;;;;2062658;28;1033;-88
2021/11/20 09:39:15;;;;;;;;;;;;;;;;;;2074930;28;1898;-87
2021/11/20 09:40:19;;;;;;;;;;;;;;;;;;2083832;28;1387;-88
2021/11/20 09:41:21;;;;;;;;;;;;;;;;;;2074877;28;2032;-90
2021/11/20 09:42:34;;;;;;;;;;;;;;;;;;2075210;28;1412;-87
2021/11/20 09:43:36;;;;;;;;;;;;;;;;;;2082709;28;1228;-88
2021/11/20 09:44:41;;;;;;;;;;;;;;;;;;2083235;28;2049;-90
2021/11/20 09:45:43;;;;;;;;;;;;;;;;;;2068111;28;1246;-87
2021/11/20 09:46:49;;;;;;;;;;;;;;;;;;2075850;28;2150;-89
2021/11/20 09:47:52;;;;;;;;;;;;;;;;;;2080992;28;1360;-89
2021/11/20 09:48:55;;;;;;;;;;;;;;;;;;2082319;28;2013;-88
2021/11/20 09:50:02;;;;;;;;;;;;;;;;;;2083825;28;1339;-88
2021/11/20 09:51:06;;;;;;;;;;;;;;;;;;2068972;28;1217;-90
2021/11/20 09:52:09;;;;;;;;;;;;;;;;;;2076260;28;1312;-88
2021/11/20 09:53:12;;;;;;;;;;;;;;;;;;2091865;28;1476;-87
2021/11/20 09:54:18;;;;;;;;;;;;;;;;;;2082905;28;2049;-90
2021/11/20 09:55:21;;;;;;;;;;;;;;;;;;2068070;28;1395;-88